»·PEaware :: N414FT KSNA-KPSP

N414FT :: KSNA-KPSP

FLIGHT INFORMATION

Flight Status: Arrived
Operator: Privately registered:
United States
More flights under this callsign
Pilot: Luke S. (28230)
Aircraft: Unknown
(DA40)
More flights by this aircraft type
Origin: KSNA John Wayne-Orange Co
United States
Destination: KPSP Palm Springs Intl
United States
More flights between these airports :: More routes between these airports
Route: KSNA HAPPE KPSP
File this flight plan on PilotEdge
Remarks:
Altitude:
(Current/Filed)
0ft
Speed:
(Current/Filed)
0kts
Departed: 22-May-20 08:19 PM
Arrived: 22-May-20 08:57 PM
Distance/Time
Traveled:
69nm/0:38
Distance/Time
To Go:
Arrived

Flight Plot

Page will automatically refresh every two minutes.


Map Options




Map Legend


Flown Route
Filed Route
Departure Airport
Arrival Airport
Navaid (VOR, NDB)
Fix

Horizontal Profiles

Position Reports

Time Latitude Longitude Heading Altitude Ground
Speed
22-May-20 20:04 33.671970 -117.867335 329 59ft 0kts
22-May-20 20:05 33.671970 -117.867335 329 59ft 0kts
22-May-20 20:06 33.671970 -117.867335 329 59ft 0kts
22-May-20 20:07 33.671970 -117.867335 329 59ft 0kts
22-May-20 20:08 33.671970 -117.867335 329 59ft 0kts
22-May-20 20:09 33.671970 -117.867335 329 59ft 0kts
22-May-20 20:10 33.672470 -117.867781 332 59ft 9kts
22-May-20 20:11 33.674161 -117.867024 23 59ft 11kts
22-May-20 20:12 33.678083 -117.864555 27 59ft 22kts
22-May-20 20:13 33.679969 -117.863668 306 59ft 0kts
22-May-20 20:14 33.680009 -117.863745 300 59ft 0kts
22-May-20 20:15 33.680082 -117.864176 209 59ft 0kts
22-May-20 20:16 33.680082 -117.864176 209 59ft 0kts
22-May-20 20:17 33.680082 -117.864176 209 59ft 0kts
22-May-20 20:18 33.666901 -117.871018 183 634ft 94kts
22-May-20 20:19 33.645146 -117.845892 91 1493ft 134kts
22-May-20 20:20 33.643897 -117.794794 91 2450ft 126kts
22-May-20 20:21 33.653008 -117.750383 59 3491ft 121kts
22-May-20 20:22 33.671898 -117.710892 59 4492ft 124kts
22-May-20 20:23 33.679009 -117.668685 87 5430ft 124kts
22-May-20 20:24 33.679254 -117.626193 89 6321ft 123kts
22-May-20 20:25 33.679103 -117.584165 89 7176ft 123kts
22-May-20 20:26 33.678916 -117.542035 89 8004ft 122kts
22-May-20 20:27 33.678715 -117.500106 89 8797ft 121kts
22-May-20 20:28 33.678498 -117.457944 89 9528ft 125kts
22-May-20 20:29 33.678228 -117.411003 90 9555ft 141kts
22-May-20 20:30 33.677935 -117.361704 90 9555ft 142kts
22-May-20 20:31 33.677631 -117.313294 90 9554ft 140kts
22-May-20 20:32 33.677318 -117.265994 90 9553ft 133kts
22-May-20 20:33 33.677016 -117.221896 90 9554ft 132kts
22-May-20 20:34 33.676695 -117.177670 90 9554ft 132kts
22-May-20 20:35 33.676355 -117.133610 90 9554ft 132kts
22-May-20 20:36 33.675998 -117.089504 90 9554ft 132kts
22-May-20 20:37 33.675624 -117.045403 90 9554ft 132kts
22-May-20 20:38 33.675235 -117.001274 90 9554ft 132kts
22-May-20 20:39 33.674831 -116.957219 90 9554ft 132kts
22-May-20 20:40 33.674410 -116.913061 90 9554ft 132kts
22-May-20 20:41 33.673972 -116.868819 90 9554ft 132kts
22-May-20 20:42 33.673522 -116.824815 90 9554ft 132kts
22-May-20 20:43 33.673053 -116.780666 90 9594ft 128kts
22-May-20 20:44 33.672590 -116.738152 90 9711ft 130kts
22-May-20 20:45 33.672093 -116.694221 90 9710ft 132kts
22-May-20 20:46 33.677238 -116.652291 47 9711ft 131kts
22-May-20 20:47 33.696526 -116.614696 58 9654ft 136kts
22-May-20 20:48 33.716730 -116.574832 58 9030ft 139kts
22-May-20 20:49 33.733568 -116.533940 66 7293ft 132kts
22-May-20 20:50 33.747940 -116.494071 66 5095ft 130kts
22-May-20 20:51 33.762075 -116.454862 66 2892ft 127kts
22-May-20 20:52 33.778669 -116.446097 299 2090ft 91kts
22-May-20 20:53 33.793923 -116.469404 312 1557ft 76kts
22-May-20 20:54 33.808892 -116.486595 322 1052ft 75kts
22-May-20 20:55 33.824729 -116.500416 319 499ft 68kts
22-May-20 20:56 33.830213 -116.504303 338 480ft 5kts
22-May-20 20:57 33.832047 -116.505313 92 480ft 2kts

Navigation Log

Ident Type
Flight plan parsing failed, navigation log unavailable